sensor_id;sensor_type;location;lat;lon;timestamp;P1;durP1;ratioP1;P2;durP2;ratioP2
4595;SDS011;2310;49.978;8.742;2023-05-07T00:00:21;6.23;;;3.90;;
4595;SDS011;2310;49.978;8.742;2023-05-07T00:04:23;4.90;;;3.90;;
4595;SDS011;2310;49.978;8.742;2023-05-07T00:08:25;4.23;;;3.47;;
4595;SDS011;2310;49.978;8.742;2023-05-07T00:12:27;4.07;;;2.93;;
4595;SDS011;2310;49.978;8.742;2023-05-07T00:16:29;5.10;;;3.63;;
4595;SDS011;2310;49.978;8.742;2023-05-07T00:20:30;5.23;;;3.40;;
4595;SDS011;2310;49.978;8.742;2023-05-07T00:24:33;5.27;;;3.20;;
4595;SDS011;2310;49.978;8.742;2023-05-07T00:28:35;7.30;;;3.60;;
4595;SDS011;2310;49.978;8.742;2023-05-07T00:32:37;6.50;;;3.30;;
4595;SDS011;2310;49.978;8.742;2023-05-07T00:36:39;5.20;;;3.33;;
4595;SDS011;2310;49.978;8.742;2023-05-07T00:40:42;4.87;;;3.90;;
4595;SDS011;2310;49.978;8.742;2023-05-07T00:44:43;4.53;;;3.57;;
4595;SDS011;2310;49.978;8.742;2023-05-07T00:48:44;4.60;;;3.77;;
4595;SDS011;2310;49.978;8.742;2023-05-07T00:52:46;6.30;;;3.50;;
4595;SDS011;2310;49.978;8.742;2023-05-07T00:56:47;5.03;;;3.57;;
4595;SDS011;2310;49.978;8.742;2023-05-07T01:00:48;5.87;;;4.03;;
4595;SDS011;2310;49.978;8.742;2023-05-07T01:04:50;5.17;;;3.70;;
4595;SDS011;2310;49.978;8.742;2023-05-07T01:08:52;4.20;;;3.20;;
4595;SDS011;2310;49.978;8.742;2023-05-07T01:12:53;5.00;;;3.90;;
4595;SDS011;2310;49.978;8.742;2023-05-07T01:16:55;5.63;;;3.90;;
4595;SDS011;2310;49.978;8.742;2023-05-07T01:20:57;8.10;;;3.87;;
4595;SDS011;2310;49.978;8.742;2023-05-07T01:24:59;6.90;;;4.20;;
4595;SDS011;2310;49.978;8.742;2023-05-07T01:29:02;4.60;;;4.10;;
4595;SDS011;2310;49.978;8.742;2023-05-07T01:33:07;7.47;;;4.23;;
4595;SDS011;2310;49.978;8.742;2023-05-07T01:37:10;5.20;;;4.43;;
4595;SDS011;2310;49.978;8.742;2023-05-07T01:41:11;8.07;;;4.67;;
4595;SDS011;2310;49.978;8.742;2023-05-07T01:45:13;5.93;;;4.20;;
4595;SDS011;2310;49.978;8.742;2023-05-07T01:49:15;6.30;;;4.17;;
4595;SDS011;2310;49.978;8.742;2023-05-07T01:53:17;6.07;;;4.63;;
4595;SDS011;2310;49.978;8.742;2023-05-07T01:57:18;4.93;;;4.40;;
4595;SDS011;2310;49.978;8.742;2023-05-07T02:01:19;5.03;;;4.40;;
4595;SDS011;2310;49.978;8.742;2023-05-07T02:05:21;6.40;;;5.33;;
4595;SDS011;2310;49.978;8.742;2023-05-07T02:09:22;6.57;;;4.90;;
4595;SDS011;2310;49.978;8.742;2023-05-07T02:13:25;6.83;;;5.30;;
4595;SDS011;2310;49.978;8.742;2023-05-07T02:17:27;6.57;;;4.47;;
4595;SDS011;2310;49.978;8.742;2023-05-07T02:21:30;6.07;;;4.23;;
4595;SDS011;2310;49.978;8.742;2023-05-07T02:25:31;5.03;;;4.53;;
4595;SDS011;2310;49.978;8.742;2023-05-07T02:29:33;5.20;;;4.33;;
4595;SDS011;2310;49.978;8.742;2023-05-07T02:33:34;7.73;;;4.60;;
4595;SDS011;2310;49.978;8.742;2023-05-07T02:37:36;5.50;;;4.53;;
4595;SDS011;2310;49.978;8.742;2023-05-07T02:41:37;8.13;;;5.03;;
4595;SDS011;2310;49.978;8.742;2023-05-07T02:45:38;5.87;;;4.90;;
4595;SDS011;2310;49.978;8.742;2023-05-07T02:49:39;7.33;;;4.43;;
4595;SDS011;2310;49.978;8.742;2023-05-07T02:53:40;5.30;;;4.73;;
4595;SDS011;2310;49.978;8.742;2023-05-07T02:57:41;8.73;;;4.50;;
4595;SDS011;2310;49.978;8.742;2023-05-07T03:01:43;6.27;;;4.73;;
4595;SDS011;2310;49.978;8.742;2023-05-07T03:05:45;4.83;;;3.93;;
4595;SDS011;2310;49.978;8.742;2023-05-07T03:09:47;5.43;;;4.93;;
4595;SDS011;2310;49.978;8.742;2023-05-07T03:13:48;6.00;;;4.17;;
4595;SDS011;2310;49.978;8.742;2023-05-07T03:17:50;6.47;;;5.10;;
4595;SDS011;2310;49.978;8.742;2023-05-07T03:21:51;5.40;;;4.70;;
4595;SDS011;2310;49.978;8.742;2023-05-07T03:25:52;5.43;;;4.73;;
4595;SDS011;2310;49.978;8.742;2023-05-07T03:29:53;6.47;;;5.87;;
4595;SDS011;2310;49.978;8.742;2023-05-07T03:33:55;6.53;;;5.77;;
4595;SDS011;2310;49.978;8.742;2023-05-07T03:37:58;5.93;;;4.90;;
4595;SDS011;2310;49.978;8.742;2023-05-07T03:41:59;4.50;;;3.87;;
4595;SDS011;2310;49.978;8.742;2023-05-07T03:46:01;5.47;;;4.40;;
4595;SDS011;2310;49.978;8.742;2023-05-07T03:50:02;4.83;;;4.30;;
4595;SDS011;2310;49.978;8.742;2023-05-07T03:54:04;5.60;;;4.80;;
4595;SDS011;2310;49.978;8.742;2023-05-07T03:58:05;6.37;;;5.03;;
4595;SDS011;2310;49.978;8.742;2023-05-07T04:02:06;5.87;;;4.57;;
4595;SDS011;2310;49.978;8.742;2023-05-07T04:06:07;6.77;;;4.90;;
4595;SDS011;2310;49.978;8.742;2023-05-07T04:10:09;4.87;;;4.20;;
4595;SDS011;2310;49.978;8.742;2023-05-07T04:14:11;5.90;;;5.30;;
4595;SDS011;2310;49.978;8.742;2023-05-07T04:18:12;5.93;;;4.50;;
4595;SDS011;2310;49.978;8.742;2023-05-07T04:22:13;7.27;;;4.80;;
4595;SDS011;2310;49.978;8.742;2023-05-07T04:26:14;6.50;;;5.53;;
4595;SDS011;2310;49.978;8.742;2023-05-07T04:30:16;6.17;;;4.47;;
4595;SDS011;2310;49.978;8.742;2023-05-07T04:34:17;7.20;;;5.03;;
4595;SDS011;2310;49.978;8.742;2023-05-07T04:38:18;7.10;;;5.23;;
4595;SDS011;2310;49.978;8.742;2023-05-07T04:42:19;5.60;;;4.63;;
4595;SDS011;2310;49.978;8.742;2023-05-07T04:46:21;6.80;;;5.20;;
4595;SDS011;2310;49.978;8.742;2023-05-07T04:51:08;5.23;;;4.30;;
4595;SDS011;2310;49.978;8.742;2023-05-07T04:55:09;6.20;;;4.67;;
4595;SDS011;2310;49.978;8.742;2023-05-07T04:59:10;5.73;;;4.77;;
4595;SDS011;2310;49.978;8.742;2023-05-07T05:03:12;9.30;;;5.00;;
4595;SDS011;2310;49.978;8.742;2023-05-07T05:07:13;5.67;;;4.50;;
4595;SDS011;2310;49.978;8.742;2023-05-07T05:11:14;6.03;;;3.90;;
4595;SDS011;2310;49.978;8.742;2023-05-07T05:15:15;6.47;;;4.70;;
4595;SDS011;2310;49.978;8.742;2023-05-07T05:19:17;6.40;;;4.37;;
4595;SDS011;2310;49.978;8.742;2023-05-07T05:23:18;5.77;;;4.53;;
4595;SDS011;2310;49.978;8.742;2023-05-07T05:27:20;6.77;;;4.50;;
4595;SDS011;2310;49.978;8.742;2023-05-07T05:31:22;7.50;;;4.37;;
4595;SDS011;2310;49.978;8.742;2023-05-07T05:35:23;9.97;;;5.30;;
4595;SDS011;2310;49.978;8.742;2023-05-07T05:39:24;4.23;;;3.73;;
4595;SDS011;2310;49.978;8.742;2023-05-07T05:43:25;5.17;;;4.17;;
4595;SDS011;2310;49.978;8.742;2023-05-07T05:47:27;6.50;;;4.60;;
4595;SDS011;2310;49.978;8.742;2023-05-07T05:51:28;7.27;;;5.40;;
4595;SDS011;2310;49.978;8.742;2023-05-07T05:55:29;5.40;;;4.57;;
4595;SDS011;2310;49.978;8.742;2023-05-07T05:59:33;5.30;;;4.80;;
4595;SDS011;2310;49.978;8.742;2023-05-07T06:03:34;5.43;;;4.23;;
4595;SDS011;2310;49.978;8.742;2023-05-07T06:07:35;6.07;;;5.10;;
4595;SDS011;2310;49.978;8.742;2023-05-07T06:11:36;5.00;;;4.30;;
4595;SDS011;2310;49.978;8.742;2023-05-07T06:15:38;6.30;;;4.77;;
4595;SDS011;2310;49.978;8.742;2023-05-07T06:19:39;6.77;;;4.53;;
4595;SDS011;2310;49.978;8.742;2023-05-07T06:23:40;7.20;;;4.57;;
4595;SDS011;2310;49.978;8.742;2023-05-07T06:27:41;7.20;;;4.87;;
4595;SDS011;2310;49.978;8.742;2023-05-07T06:31:43;5.60;;;5.00;;
4595;SDS011;2310;49.978;8.742;2023-05-07T06:35:44;5.47;;;4.27;;
4595;SDS011;2310;49.978;8.742;2023-05-07T06:39:45;6.90;;;5.27;;
4595;SDS011;2310;49.978;8.742;2023-05-07T06:43:47;6.83;;;4.77;;
4595;SDS011;2310;49.978;8.742;2023-05-07T06:47:48;5.33;;;4.30;;
4595;SDS011;2310;49.978;8.742;2023-05-07T06:51:49;7.07;;;5.07;;
4595;SDS011;2310;49.978;8.742;2023-05-07T06:55:50;5.80;;;4.40;;
4595;SDS011;2310;49.978;8.742;2023-05-07T06:59:52;5.20;;;4.37;;
4595;SDS011;2310;49.978;8.742;2023-05-07T07:03:54;6.13;;;4.40;;
4595;SDS011;2310;49.978;8.742;2023-05-07T07:07:55;5.83;;;5.20;;
4595;SDS011;2310;49.978;8.742;2023-05-07T07:11:56;7.30;;;5.77;;
4595;SDS011;2310;49.978;8.742;2023-05-07T07:15:57;7.20;;;5.67;;
4595;SDS011;2310;49.978;8.742;2023-05-07T07:19:59;5.73;;;4.50;;
4595;SDS011;2310;49.978;8.742;2023-05-07T07:24:00;6.40;;;5.60;;
4595;SDS011;2310;49.978;8.742;2023-05-07T07:28:01;8.47;;;5.00;;
4595;SDS011;2310;49.978;8.742;2023-05-07T07:32:02;6.70;;;5.73;;
4595;SDS011;2310;49.978;8.742;2023-05-07T07:36:05;5.90;;;5.30;;
4595;SDS011;2310;49.978;8.742;2023-05-07T07:40:07;5.60;;;4.87;;
4595;SDS011;2310;49.978;8.742;2023-05-07T07:44:09;6.30;;;5.17;;
4595;SDS011;2310;49.978;8.742;2023-05-07T07:48:14;7.30;;;5.83;;
4595;SDS011;2310;49.978;8.742;2023-05-07T07:52:15;6.77;;;5.60;;
4595;SDS011;2310;49.978;8.742;2023-05-07T07:56:16;6.10;;;4.27;;
4595;SDS011;2310;49.978;8.742;2023-05-07T08:00:18;7.07;;;5.87;;
4595;SDS011;2310;49.978;8.742;2023-05-07T08:04:19;8.33;;;6.30;;
4595;SDS011;2310;49.978;8.742;2023-05-07T08:08:20;8.00;;;5.70;;
4595;SDS011;2310;49.978;8.742;2023-05-07T08:12:22;7.50;;;6.00;;
4595;SDS011;2310;49.978;8.742;2023-05-07T08:16:23;7.73;;;6.90;;
4595;SDS011;2310;49.978;8.742;2023-05-07T08:20:24;8.70;;;5.87;;
4595;SDS011;2310;49.978;8.742;2023-05-07T08:24:26;7.17;;;5.37;;
4595;SDS011;2310;49.978;8.742;2023-05-07T08:28:27;6.53;;;5.93;;
4595;SDS011;2310;49.978;8.742;2023-05-07T08:32:28;6.57;;;5.23;;
4595;SDS011;2310;49.978;8.742;2023-05-07T08:36:29;6.63;;;5.50;;
4595;SDS011;2310;49.978;8.742;2023-05-07T08:40:32;7.10;;;6.40;;
4595;SDS011;2310;49.978;8.742;2023-05-07T08:44:35;6.90;;;6.20;;
4595;SDS011;2310;49.978;8.742;2023-05-07T08:48:39;6.90;;;6.20;;
4595;SDS011;2310;49.978;8.742;2023-05-07T08:52:40;7.93;;;6.20;;
4595;SDS011;2310;49.978;8.742;2023-05-07T08:56:42;7.67;;;6.90;;
4595;SDS011;2310;49.978;8.742;2023-05-07T09:00:43;6.90;;;6.20;;
4595;SDS011;2310;49.978;8.742;2023-05-07T09:04:44;8.13;;;6.70;;
4595;SDS011;2310;49.978;8.742;2023-05-07T09:08:56;6.50;;;5.73;;
4595;SDS011;2310;49.978;8.742;2023-05-07T09:12:55;7.03;;;6.40;;
4595;SDS011;2310;49.978;8.742;2023-05-07T09:16:56;7.17;;;6.47;;
4595;SDS011;2310;49.978;8.742;2023-05-07T09:20:57;7.20;;;6.50;;
4595;SDS011;2310;49.978;8.742;2023-05-07T09:24:58;7.20;;;6.50;;
4595;SDS011;2310;49.978;8.742;2023-05-07T09:29:00;6.73;;;6.03;;
4595;SDS011;2310;49.978;8.742;2023-05-07T09:33:02;7.17;;;5.40;;
4595;SDS011;2310;49.978;8.742;2023-05-07T09:37:05;7.77;;;6.00;;
4595;SDS011;2310;49.978;8.742;2023-05-07T09:41:09;7.40;;;6.43;;
4595;SDS011;2310;49.978;8.742;2023-05-07T09:45:11;6.63;;;5.97;;
4595;SDS011;2310;49.978;8.742;2023-05-07T09:49:16;7.07;;;6.27;;
4595;SDS011;2310;49.978;8.742;2023-05-07T09:53:21;7.57;;;5.40;;
4595;SDS011;2310;49.978;8.742;2023-05-07T09:57:24;6.53;;;5.97;;
4595;SDS011;2310;49.978;8.742;2023-05-07T10:01:27;6.30;;;5.70;;
4595;SDS011;2310;49.978;8.742;2023-05-07T10:05:31;7.50;;;6.80;;
4595;SDS011;2310;49.978;8.742;2023-05-07T10:09:34;11.63;;;7.47;;
4595;SDS011;2310;49.978;8.742;2023-05-07T10:13:38;7.03;;;6.33;;
4595;SDS011;2310;49.978;8.742;2023-05-07T10:17:40;7.10;;;5.97;;
4595;SDS011;2310;49.978;8.742;2023-05-07T10:21:44;6.50;;;5.80;;
4595;SDS011;2310;49.978;8.742;2023-05-07T10:25:47;7.00;;;6.30;;
4595;SDS011;2310;49.978;8.742;2023-05-07T10:34:00;6.37;;;5.67;;
4595;SDS011;2310;49.978;8.742;2023-05-07T10:38:03;6.20;;;5.60;;
4595;SDS011;2310;49.978;8.742;2023-05-07T10:42:11;6.53;;;5.93;;
4595;SDS011;2310;49.978;8.742;2023-05-07T10:46:16;5.60;;;5.07;;
4595;SDS011;2310;49.978;8.742;2023-05-07T10:54:23;8.77;;;5.63;;
4595;SDS011;2310;49.978;8.742;2023-05-07T10:58:26;7.07;;;5.00;;
4595;SDS011;2310;49.978;8.742;2023-05-07T11:11:14;5.57;;;4.90;;
4595;SDS011;2310;49.978;8.742;2023-05-07T11:15:33;6.50;;;5.30;;
4595;SDS011;2310;49.978;8.742;2023-05-07T11:19:54;4.97;;;4.47;;
4595;SDS011;2310;49.978;8.742;2023-05-07T11:23:56;8.17;;;4.40;;
4595;SDS011;2310;49.978;8.742;2023-05-07T11:28:05;5.33;;;4.83;;
4595;SDS011;2310;49.978;8.742;2023-05-07T11:32:07;5.13;;;3.93;;
4595;SDS011;2310;49.978;8.742;2023-05-07T11:36:10;4.80;;;3.90;;
4595;SDS011;2310;49.978;8.742;2023-05-07T11:40:11;5.40;;;3.70;;
4595;SDS011;2310;49.978;8.742;2023-05-07T11:44:14;4.10;;;3.13;;
4595;SDS011;2310;49.978;8.742;2023-05-07T11:48:16;4.13;;;3.17;;
4595;SDS011;2310;49.978;8.742;2023-05-07T11:52:18;4.60;;;3.33;;
4595;SDS011;2310;49.978;8.742;2023-05-07T11:56:21;4.63;;;3.33;;
4595;SDS011;2310;49.978;8.742;2023-05-07T12:00:23;5.10;;;3.50;;
4595;SDS011;2310;49.978;8.742;2023-05-07T12:04:24;4.70;;;3.87;;
4595;SDS011;2310;49.978;8.742;2023-05-07T12:08:26;5.17;;;3.50;;
4595;SDS011;2310;49.978;8.742;2023-05-07T12:12:27;4.13;;;3.30;;
4595;SDS011;2310;49.978;8.742;2023-05-07T12:16:28;4.40;;;3.90;;
4595;SDS011;2310;49.978;8.742;2023-05-07T12:20:30;5.37;;;4.40;;
4595;SDS011;2310;49.978;8.742;2023-05-07T12:24:47;5.70;;;4.20;;
4595;SDS011;2310;49.978;8.742;2023-05-07T12:28:50;4.03;;;3.40;;
4595;SDS011;2310;49.978;8.742;2023-05-07T12:32:55;5.03;;;4.10;;
4595;SDS011;2310;49.978;8.742;2023-05-07T12:36:56;5.00;;;4.50;;
4595;SDS011;2310;49.978;8.742;2023-05-07T12:40:58;5.17;;;4.13;;
4595;SDS011;2310;49.978;8.742;2023-05-07T12:44:59;5.70;;;4.57;;
4595;SDS011;2310;49.978;8.742;2023-05-07T12:49:00;5.77;;;4.43;;
4595;SDS011;2310;49.978;8.742;2023-05-07T12:53:03;5.00;;;4.07;;
4595;SDS011;2310;49.978;8.742;2023-05-07T12:57:09;4.70;;;4.10;;
4595;SDS011;2310;49.978;8.742;2023-05-07T13:01:11;5.13;;;4.30;;
4595;SDS011;2310;49.978;8.742;2023-05-07T13:05:14;5.87;;;4.77;;
4595;SDS011;2310;49.978;8.742;2023-05-07T13:09:15;4.60;;;4.17;;
4595;SDS011;2310;49.978;8.742;2023-05-07T13:13:16;4.80;;;4.20;;
4595;SDS011;2310;49.978;8.742;2023-05-07T13:17:17;4.00;;;3.13;;
4595;SDS011;2310;49.978;8.742;2023-05-07T13:21:19;4.40;;;4.00;;
4595;SDS011;2310;49.978;8.742;2023-05-07T13:25:21;5.17;;;4.10;;
4595;SDS011;2310;49.978;8.742;2023-05-07T13:29:22;6.53;;;4.30;;
4595;SDS011;2310;49.978;8.742;2023-05-07T13:33:28;4.17;;;3.30;;
4595;SDS011;2310;49.978;8.742;2023-05-07T13:37:29;4.17;;;3.70;;
4595;SDS011;2310;49.978;8.742;2023-05-07T13:41:30;3.80;;;3.00;;
4595;SDS011;2310;49.978;8.742;2023-05-07T13:45:32;5.17;;;2.73;;
4595;SDS011;2310;49.978;8.742;2023-05-07T13:49:33;4.63;;;3.60;;
4595;SDS011;2310;49.978;8.742;2023-05-07T13:53:34;4.60;;;2.93;;
4595;SDS011;2310;49.978;8.742;2023-05-07T13:57:36;4.23;;;3.10;;
4595;SDS011;2310;49.978;8.742;2023-05-07T14:01:37;5.27;;;3.37;;
4595;SDS011;2310;49.978;8.742;2023-05-07T14:05:39;4.13;;;3.17;;
4595;SDS011;2310;49.978;8.742;2023-05-07T14:09:40;6.00;;;3.50;;
4595;SDS011;2310;49.978;8.742;2023-05-07T14:13:41;7.93;;;3.63;;
4595;SDS011;2310;49.978;8.742;2023-05-07T14:17:43;4.93;;;4.20;;
4595;SDS011;2310;49.978;8.742;2023-05-07T14:21:44;5.57;;;3.67;;
4595;SDS011;2310;49.978;8.742;2023-05-07T14:25:46;7.37;;;4.30;;
4595;SDS011;2310;49.978;8.742;2023-05-07T14:29:48;7.00;;;3.20;;
4595;SDS011;2310;49.978;8.742;2023-05-07T14:33:51;4.07;;;3.57;;
4595;SDS011;2310;49.978;8.742;2023-05-07T14:37:52;4.00;;;2.83;;
4595;SDS011;2310;49.978;8.742;2023-05-07T14:41:53;4.70;;;3.43;;
4595;SDS011;2310;49.978;8.742;2023-05-07T14:45:56;3.83;;;3.13;;
4595;SDS011;2310;49.978;8.742;2023-05-07T14:49:58;6.00;;;3.40;;
4595;SDS011;2310;49.978;8.742;2023-05-07T14:54:00;6.93;;;3.60;;
4595;SDS011;2310;49.978;8.742;2023-05-07T14:58:02;4.30;;;3.30;;
4595;SDS011;2310;49.978;8.742;2023-05-07T15:02:03;5.77;;;3.27;;
4595;SDS011;2310;49.978;8.742;2023-05-07T15:06:07;11.77;;;3.77;;
4595;SDS011;2310;49.978;8.742;2023-05-07T15:10:09;3.90;;;3.27;;
4595;SDS011;2310;49.978;8.742;2023-05-07T15:14:10;4.33;;;2.93;;
4595;SDS011;2310;49.978;8.742;2023-05-07T15:18:11;4.23;;;3.30;;
4595;SDS011;2310;49.978;8.742;2023-05-07T15:22:12;5.10;;;3.87;;
4595;SDS011;2310;49.978;8.742;2023-05-07T15:26:14;4.97;;;3.03;;
4595;SDS011;2310;49.978;8.742;2023-05-07T15:30:15;3.80;;;3.07;;
4595;SDS011;2310;49.978;8.742;2023-05-07T15:34:17;5.23;;;2.80;;
4595;SDS011;2310;49.978;8.742;2023-05-07T15:38:18;4.13;;;3.17;;
4595;SDS011;2310;49.978;8.742;2023-05-07T15:42:20;5.20;;;3.20;;
4595;SDS011;2310;49.978;8.742;2023-05-07T15:46:22;5.30;;;3.53;;
4595;SDS011;2310;49.978;8.742;2023-05-07T15:50:25;5.27;;;3.40;;
4595;SDS011;2310;49.978;8.742;2023-05-07T15:54:29;4.60;;;3.67;;
4595;SDS011;2310;49.978;8.742;2023-05-07T15:58:30;5.47;;;4.50;;
4595;SDS011;2310;49.978;8.742;2023-05-07T16:02:32;5.37;;;3.83;;
4595;SDS011;2310;49.978;8.742;2023-05-07T16:06:33;6.73;;;4.07;;
4595;SDS011;2310;49.978;8.742;2023-05-07T16:10:35;29.63;;;27.03;;
4595;SDS011;2310;49.978;8.742;2023-05-07T16:14:36;8.57;;;7.60;;
4595;SDS011;2310;49.978;8.742;2023-05-07T16:18:38;7.43;;;6.63;;
4595;SDS011;2310;49.978;8.742;2023-05-07T16:22:39;6.00;;;5.40;;
4595;SDS011;2310;49.978;8.742;2023-05-07T16:26:40;5.30;;;4.67;;
4595;SDS011;2310;49.978;8.742;2023-05-07T16:30:42;7.87;;;4.97;;
4595;SDS011;2310;49.978;8.742;2023-05-07T16:34:43;5.13;;;4.03;;
4595;SDS011;2310;49.978;8.742;2023-05-07T16:38:45;6.20;;;4.53;;
4595;SDS011;2310;49.978;8.742;2023-05-07T16:42:49;17.67;;;5.60;;
4595;SDS011;2310;49.978;8.742;2023-05-07T16:46:50;8.07;;;5.80;;
4595;SDS011;2310;49.978;8.742;2023-05-07T16:50:52;9.77;;;5.50;;
4595;SDS011;2310;49.978;8.742;2023-05-07T16:54:54;6.67;;;5.43;;
4595;SDS011;2310;49.978;8.742;2023-05-07T16:59:02;6.40;;;5.43;;
4595;SDS011;2310;49.978;8.742;2023-05-07T17:03:08;7.60;;;5.13;;
4595;SDS011;2310;49.978;8.742;2023-05-07T17:07:10;7.13;;;5.47;;
4595;SDS011;2310;49.978;8.742;2023-05-07T17:11:12;7.70;;;5.90;;
4595;SDS011;2310;49.978;8.742;2023-05-07T17:15:14;6.00;;;5.40;;
4595;SDS011;2310;49.978;8.742;2023-05-07T17:19:16;6.57;;;5.10;;
4595;SDS011;2310;49.978;8.742;2023-05-07T17:23:17;6.77;;;4.60;;
4595;SDS011;2310;49.978;8.742;2023-05-07T17:27:18;7.10;;;4.50;;
4595;SDS011;2310;49.978;8.742;2023-05-07T17:31:20;5.40;;;4.17;;
4595;SDS011;2310;49.978;8.742;2023-05-07T17:35:21;6.13;;;4.73;;
4595;SDS011;2310;49.978;8.742;2023-05-07T17:39:23;6.73;;;4.40;;
4595;SDS011;2310;49.978;8.742;2023-05-07T17:43:24;4.50;;;3.43;;
4595;SDS011;2310;49.978;8.742;2023-05-07T17:47:25;4.70;;;3.57;;
4595;SDS011;2310;49.978;8.742;2023-05-07T17:51:26;5.70;;;4.20;;
4595;SDS011;2310;49.978;8.742;2023-05-07T17:55:30;5.13;;;3.50;;
4595;SDS011;2310;49.978;8.742;2023-05-07T17:59:36;4.93;;;3.70;;
4595;SDS011;2310;49.978;8.742;2023-05-07T18:03:39;6.07;;;4.50;;
4595;SDS011;2310;49.978;8.742;2023-05-07T18:07:40;5.67;;;4.47;;
4595;SDS011;2310;49.978;8.742;2023-05-07T18:11:42;4.50;;;3.73;;
4595;SDS011;2310;49.978;8.742;2023-05-07T18:15:46;6.90;;;4.60;;
4595;SDS011;2310;49.978;8.742;2023-05-07T18:19:47;5.30;;;4.10;;
4595;SDS011;2310;49.978;8.742;2023-05-07T18:23:48;7.50;;;4.23;;
4595;SDS011;2310;49.978;8.742;2023-05-07T18:27:51;5.87;;;3.67;;
4595;SDS011;2310;49.978;8.742;2023-05-07T18:31:52;5.67;;;3.50;;
4595;SDS011;2310;49.978;8.742;2023-05-07T18:35:53;6.73;;;3.97;;
4595;SDS011;2310;49.978;8.742;2023-05-07T18:39:55;5.00;;;4.30;;
4595;SDS011;2310;49.978;8.742;2023-05-07T18:43:56;5.00;;;3.43;;
4595;SDS011;2310;49.978;8.742;2023-05-07T18:47:57;5.40;;;3.33;;
4595;SDS011;2310;49.978;8.742;2023-05-07T18:51:59;4.23;;;3.77;;
4595;SDS011;2310;49.978;8.742;2023-05-07T18:56:00;5.73;;;4.27;;
4595;SDS011;2310;49.978;8.742;2023-05-07T19:00:02;6.30;;;4.90;;
4595;SDS011;2310;49.978;8.742;2023-05-07T19:04:05;7.77;;;4.63;;
4595;SDS011;2310;49.978;8.742;2023-05-07T19:08:07;5.93;;;5.30;;
4595;SDS011;2310;49.978;8.742;2023-05-07T19:12:08;8.20;;;4.90;;
4595;SDS011;2310;49.978;8.742;2023-05-07T19:16:10;6.83;;;5.47;;
4595;SDS011;2310;49.978;8.742;2023-05-07T19:20:13;10.27;;;5.73;;
4595;SDS011;2310;49.978;8.742;2023-05-07T19:24:15;5.60;;;4.60;;
4595;SDS011;2310;49.978;8.742;2023-05-07T19:28:16;7.97;;;4.63;;
4595;SDS011;2310;49.978;8.742;2023-05-07T19:32:18;5.93;;;4.87;;
4595;SDS011;2310;49.978;8.742;2023-05-07T19:36:21;5.27;;;4.20;;
4595;SDS011;2310;49.978;8.742;2023-05-07T19:40:22;7.30;;;5.20;;
4595;SDS011;2310;49.978;8.742;2023-05-07T19:44:23;6.53;;;4.83;;
4595;SDS011;2310;49.978;8.742;2023-05-07T19:48:24;6.77;;;4.90;;
4595;SDS011;2310;49.978;8.742;2023-05-07T19:52:26;6.30;;;5.13;;
4595;SDS011;2310;49.978;8.742;2023-05-07T19:56:27;7.83;;;6.63;;
4595;SDS011;2310;49.978;8.742;2023-05-07T20:00:30;7.73;;;6.93;;
4595;SDS011;2310;49.978;8.742;2023-05-07T20:04:33;9.23;;;7.43;;
4595;SDS011;2310;49.978;8.742;2023-05-07T20:08:36;8.37;;;7.57;;
4595;SDS011;2310;49.978;8.742;2023-05-07T20:12:37;10.23;;;9.23;;
4595;SDS011;2310;49.978;8.742;2023-05-07T20:16:39;10.40;;;9.40;;
4595;SDS011;2310;49.978;8.742;2023-05-07T20:20:41;10.47;;;9.43;;
4595;SDS011;2310;49.978;8.742;2023-05-07T20:24:44;10.33;;;8.40;;
4595;SDS011;2310;49.978;8.742;2023-05-07T20:28:46;9.67;;;8.67;;
4595;SDS011;2310;49.978;8.742;2023-05-07T20:32:47;11.03;;;9.20;;
4595;SDS011;2310;49.978;8.742;2023-05-07T20:36:48;11.93;;;10.00;;
4595;SDS011;2310;49.978;8.742;2023-05-07T20:40:49;10.17;;;9.17;;
4595;SDS011;2310;49.978;8.742;2023-05-07T20:44:51;10.50;;;9.10;;
4595;SDS011;2310;49.978;8.742;2023-05-07T20:48:52;13.03;;;8.90;;
4595;SDS011;2310;49.978;8.742;2023-05-07T20:52:53;11.00;;;9.30;;
4595;SDS011;2310;49.978;8.742;2023-05-07T20:56:55;10.77;;;8.43;;
4595;SDS011;2310;49.978;8.742;2023-05-07T21:00:57;9.90;;;8.90;;
4595;SDS011;2310;49.978;8.742;2023-05-07T21:04:59;12.43;;;8.10;;
4595;SDS011;2310;49.978;8.742;2023-05-07T21:09:00;10.33;;;8.83;;
4595;SDS011;2310;49.978;8.742;2023-05-07T21:13:01;9.43;;;8.37;;
4595;SDS011;2310;49.978;8.742;2023-05-07T21:17:02;12.43;;;8.80;;
4595;SDS011;2310;49.978;8.742;2023-05-07T21:21:10;11.00;;;9.40;;
4595;SDS011;2310;49.978;8.742;2023-05-07T21:25:10;10.40;;;9.30;;
4595;SDS011;2310;49.978;8.742;2023-05-07T21:29:13;10.20;;;9.20;;
4595;SDS011;2310;49.978;8.742;2023-05-07T21:33:14;11.57;;;8.00;;
4595;SDS011;2310;49.978;8.742;2023-05-07T21:37:15;8.20;;;7.20;;
4595;SDS011;2310;49.978;8.742;2023-05-07T21:41:16;7.20;;;6.50;;
4595;SDS011;2310;49.978;8.742;2023-05-07T21:45:20;7.90;;;7.10;;
4595;SDS011;2310;49.978;8.742;2023-05-07T21:49:22;7.60;;;6.43;;
4595;SDS011;2310;49.978;8.742;2023-05-07T21:53:23;7.00;;;6.13;;
4595;SDS011;2310;49.978;8.742;2023-05-07T21:57:24;7.10;;;5.77;;
4595;SDS011;2310;49.978;8.742;2023-05-07T22:01:25;7.50;;;6.60;;
4595;SDS011;2310;49.978;8.742;2023-05-07T22:05:27;7.00;;;6.10;;
4595;SDS011;2310;49.978;8.742;2023-05-07T22:09:28;7.33;;;6.63;;
4595;SDS011;2310;49.978;8.742;2023-05-07T22:13:29;6.90;;;6.13;;
4595;SDS011;2310;49.978;8.742;2023-05-07T22:17:35;9.33;;;7.47;;
4595;SDS011;2310;49.978;8.742;2023-05-07T22:21:34;8.00;;;7.20;;
4595;SDS011;2310;49.978;8.742;2023-05-07T22:25:35;7.70;;;7.00;;
4595;SDS011;2310;49.978;8.742;2023-05-07T22:29:37;8.73;;;7.63;;
4595;SDS011;2310;49.978;8.742;2023-05-07T22:33:39;9.83;;;6.93;;
4595;SDS011;2310;49.978;8.742;2023-05-07T22:37:41;5.70;;;5.10;;
4595;SDS011;2310;49.978;8.742;2023-05-07T22:41:45;7.43;;;6.73;;
4595;SDS011;2310;49.978;8.742;2023-05-07T22:45:47;10.17;;;8.37;;
4595;SDS011;2310;49.978;8.742;2023-05-07T22:49:50;10.67;;;9.63;;
4595;SDS011;2310;49.978;8.742;2023-05-07T22:53:52;11.37;;;10.17;;
4595;SDS011;2310;49.978;8.742;2023-05-07T22:57:55;11.20;;;10.07;;
4595;SDS011;2310;49.978;8.742;2023-05-07T23:01:57;12.10;;;10.90;;
4595;SDS011;2310;49.978;8.742;2023-05-07T23:05:58;12.50;;;10.80;;
4595;SDS011;2310;49.978;8.742;2023-05-07T23:10:01;11.93;;;10.73;;
4595;SDS011;2310;49.978;8.742;2023-05-07T23:14:04;12.77;;;11.27;;
4595;SDS011;2310;49.978;8.742;2023-05-07T23:18:06;16.90;;;12.87;;
4595;SDS011;2310;49.978;8.742;2023-05-07T23:22:08;12.10;;;10.90;;
4595;SDS011;2310;49.978;8.742;2023-05-07T23:26:10;15.10;;;12.27;;
4595;SDS011;2310;49.978;8.742;2023-05-07T23:30:18;13.30;;;12.00;;
4595;SDS011;2310;49.978;8.742;2023-05-07T23:34:20;15.13;;;13.13;;
4595;SDS011;2310;49.978;8.742;2023-05-07T23:38:23;13.40;;;12.00;;
4595;SDS011;2310;49.978;8.742;2023-05-07T23:42:26;14.00;;;12.60;;
4595;SDS011;2310;49.978;8.742;2023-05-07T23:46:28;14.80;;;13.40;;
4595;SDS011;2310;49.978;8.742;2023-05-07T23:50:30;15.00;;;13.50;;
4595;SDS011;2310;49.978;8.742;2023-05-07T23:54:31;14.03;;;12.67;;
4595;SDS011;2310;49.978;8.742;2023-05-07T23:58:33;13.80;;;12.40;;
